createdAt,value
2019-03-13T00:01:35.703Z,2.53
2019-03-13T00:04:05.213Z,2.23
2019-03-13T00:06:34.634Z,2.77
2019-03-13T00:09:05.299Z,2.10
2019-03-13T00:11:35.668Z,2.60
2019-03-13T00:14:04.740Z,2.80
2019-03-13T00:16:33.734Z,2.00
2019-03-13T00:19:02.824Z,2.57
2019-03-13T00:21:31.888Z,2.30
2019-03-13T00:24:00.891Z,2.70
2019-03-13T00:26:30.977Z,2.97
2019-03-13T00:28:59.969Z,2.70
2019-03-13T00:31:29.017Z,2.70
2019-03-13T00:33:58.018Z,2.97
2019-03-13T00:36:27.002Z,3.00
2019-03-13T00:38:56.021Z,2.87
2019-03-13T00:41:25.005Z,3.40
2019-03-13T00:43:54.015Z,3.57
2019-03-13T00:46:23.009Z,3.73
2019-03-13T00:48:52.121Z,3.03
2019-03-13T00:51:21.113Z,4.00
2019-03-13T00:53:50.117Z,4.03
2019-03-13T00:56:19.093Z,3.73
2019-03-13T00:58:48.119Z,3.80
2019-03-13T01:01:18.725Z,4.27
2019-03-13T01:03:50.944Z,3.67
2019-03-13T01:06:21.585Z,3.77
2019-03-13T01:08:50.591Z,3.47
2019-03-13T01:11:19.585Z,4.20
2019-03-13T01:13:48.580Z,3.70
2019-03-13T01:16:17.501Z,3.80
2019-03-13T01:18:46.506Z,4.20
2019-03-13T01:21:15.483Z,3.70
2019-03-13T01:23:45.485Z,3.23
2019-03-13T01:26:14.481Z,4.00
2019-03-13T01:28:43.486Z,3.93
2019-03-13T01:31:14.118Z,4.03
2019-03-13T01:33:43.174Z,4.30
2019-03-13T01:36:12.170Z,4.17
2019-03-13T01:38:41.113Z,4.00
2019-03-13T01:41:10.095Z,4.17
2019-03-13T01:43:39.097Z,4.30
2019-03-13T01:46:08.076Z,4.13
2019-03-13T01:48:37.008Z,4.43
2019-03-13T01:51:05.989Z,4.33
2019-03-13T01:53:35.906Z,4.50
2019-03-13T01:56:04.982Z,4.20
2019-03-13T01:58:34.001Z,4.07
2019-03-13T02:01:02.986Z,4.60
2019-03-13T02:03:32.067Z,4.70
2019-03-13T02:06:01.046Z,4.80
2019-03-13T02:08:30.115Z,4.40
2019-03-13T02:10:59.105Z,4.37
2019-03-13T02:13:28.123Z,4.60
2019-03-13T02:15:57.102Z,4.77
2019-03-13T02:18:26.115Z,4.83
2019-03-13T02:20:55.106Z,4.73
2019-03-13T02:23:24.128Z,5.10
2019-03-13T02:25:53.377Z,4.73
2019-03-13T02:28:22.393Z,4.90
2019-03-13T02:30:51.555Z,5.27
2019-03-13T02:33:20.534Z,5.10
2019-03-13T02:35:49.549Z,5.93
2019-03-13T02:38:18.531Z,4.80
2019-03-13T02:40:47.550Z,5.97
2019-03-13T02:43:16.618Z,6.07
2019-03-13T02:45:45.730Z,6.10
2019-03-13T02:48:14.699Z,5.83
2019-03-13T02:50:43.687Z,5.97
2019-03-13T02:53:12.678Z,7.47
2019-03-13T02:55:41.734Z,6.93
2019-03-13T02:58:10.693Z,6.67
2019-03-13T03:00:41.407Z,6.20
2019-03-13T03:03:12.058Z,5.97
2019-03-13T03:05:41.063Z,6.77
2019-03-13T03:08:10.057Z,5.73
2019-03-13T03:10:39.070Z,5.60
2019-03-13T03:13:08.574Z,5.77
2019-03-13T03:15:37.593Z,6.03
2019-03-13T03:18:06.710Z,5.80
2019-03-13T03:20:35.720Z,5.57
2019-03-13T03:23:04.767Z,5.60
2019-03-13T03:25:33.766Z,5.30
2019-03-13T03:28:02.763Z,7.03
2019-03-13T03:30:31.903Z,5.70
2019-03-13T03:33:00.968Z,6.73
2019-03-13T03:35:29.947Z,5.90
2019-03-13T03:37:58.945Z,5.80
2019-03-13T03:40:27.949Z,5.83
2019-03-13T03:42:56.938Z,5.70
2019-03-13T03:45:25.958Z,5.33
2019-03-13T03:47:54.951Z,5.20
2019-03-13T03:50:23.963Z,5.07
2019-03-13T03:52:52.963Z,4.37
2019-03-13T03:55:21.959Z,5.00
2019-03-13T03:57:50.979Z,3.80
2019-03-13T04:00:20.078Z,3.80
2019-03-13T04:02:49.057Z,3.90
2019-03-13T04:05:18.094Z,3.50
2019-03-13T04:07:47.071Z,3.70
2019-03-13T04:10:16.415Z,3.80
2019-03-13T04:12:45.426Z,3.00
2019-03-13T04:15:15.005Z,2.90
2019-03-13T04:17:44.263Z,3.00
2019-03-13T04:20:14.156Z,2.80
2019-03-13T04:22:43.135Z,3.90
2019-03-13T04:25:13.327Z,3.43
2019-03-13T04:27:42.601Z,3.60
2019-03-13T04:30:12.043Z,3.30
2019-03-13T04:32:41.041Z,3.70
2019-03-13T04:35:10.070Z,2.70
2019-03-13T04:37:39.044Z,3.63
2019-03-13T04:40:08.837Z,3.00
2019-03-13T04:42:37.825Z,3.00
2019-03-13T04:45:07.722Z,3.23
2019-03-13T04:47:36.868Z,3.03
2019-03-13T04:50:07.110Z,3.30
2019-03-13T04:52:37.058Z,3.23
2019-03-13T04:55:06.620Z,2.80
2019-03-13T04:57:35.544Z,3.33
2019-03-13T05:00:06.022Z,3.73
2019-03-13T05:02:35.086Z,3.93
2019-03-13T05:05:04.366Z,3.07
2019-03-13T05:07:33.456Z,3.50
2019-03-13T05:10:02.637Z,3.43
2019-03-13T05:12:31.727Z,3.40
2019-03-13T05:15:00.823Z,3.37
2019-03-13T05:17:29.901Z,3.30
2019-03-13T05:19:58.923Z,4.17
2019-03-13T05:22:27.885Z,3.23
2019-03-13T05:24:56.877Z,3.63
2019-03-13T05:27:25.815Z,3.60
2019-03-13T05:29:54.808Z,3.77
2019-03-13T05:32:23.810Z,3.60
2019-03-13T05:34:52.803Z,3.63
2019-03-13T05:37:21.869Z,3.87
2019-03-13T05:39:50.802Z,3.20
2019-03-13T05:42:19.741Z,3.70
2019-03-13T05:44:48.675Z,3.90
2019-03-13T05:47:17.666Z,3.47
2019-03-13T05:49:46.658Z,4.20
2019-03-13T05:52:15.592Z,3.90
2019-03-13T05:54:44.585Z,3.73
2019-03-13T05:57:13.610Z,4.43
2019-03-13T05:59:42.606Z,3.43
2019-03-13T06:02:11.626Z,3.27
2019-03-13T06:04:40.648Z,3.50
2019-03-13T06:07:09.664Z,3.60
2019-03-13T06:09:38.647Z,3.93
2019-03-13T06:12:07.684Z,4.03
2019-03-13T06:14:36.698Z,3.40
2019-03-13T06:17:06.606Z,3.90
2019-03-13T06:19:35.598Z,3.10
2019-03-13T06:22:04.629Z,3.17
2019-03-13T06:24:33.620Z,3.70
2019-03-13T06:27:03.597Z,3.53
2019-03-13T06:29:33.503Z,3.60
2019-03-13T06:32:02.532Z,2.97
2019-03-13T06:34:31.557Z,4.13
2019-03-13T06:37:00.590Z,3.33
2019-03-13T06:39:31.948Z,3.53
2019-03-13T06:42:00.259Z,3.10
2019-03-13T06:44:29.261Z,3.70
2019-03-13T06:46:58.291Z,3.20
2019-03-13T06:49:27.300Z,3.40
2019-03-13T06:51:56.320Z,3.43
2019-03-13T06:54:25.355Z,3.90
2019-03-13T06:56:54.353Z,4.13
2019-03-13T06:59:25.005Z,3.83
2019-03-13T07:01:56.635Z,3.30
2019-03-13T07:04:27.308Z,4.33
2019-03-13T07:06:57.953Z,3.63
2019-03-13T07:09:28.634Z,4.33
2019-03-13T07:11:59.305Z,3.27
2019-03-13T07:14:29.960Z,3.30
2019-03-13T07:17:00.569Z,3.33
2019-03-13T07:19:31.322Z,3.27
2019-03-13T07:22:02.119Z,3.43
2019-03-13T07:24:32.769Z,3.50
2019-03-13T07:27:03.454Z,2.90
2019-03-13T07:29:34.121Z,3.60
2019-03-13T07:32:04.791Z,3.43
2019-03-13T07:34:35.445Z,4.10
2019-03-13T07:37:06.093Z,3.37
2019-03-13T07:39:36.763Z,3.10
2019-03-13T07:42:05.813Z,3.53
2019-03-13T07:44:36.461Z,3.30
2019-03-13T07:47:07.099Z,3.20
2019-03-13T07:49:37.690Z,3.57
2019-03-13T07:52:08.431Z,3.50
2019-03-13T07:54:39.127Z,3.63
2019-03-13T07:57:09.776Z,2.90
2019-03-13T07:59:40.442Z,3.23
2019-03-13T08:02:11.098Z,4.37
2019-03-13T08:04:41.762Z,4.53
2019-03-13T08:07:12.407Z,3.27
2019-03-13T08:09:43.063Z,3.33
2019-03-13T08:12:13.703Z,3.67
2019-03-13T08:14:44.393Z,3.60
2019-03-13T08:17:15.038Z,3.73
2019-03-13T08:19:45.716Z,3.63
2019-03-13T08:22:16.385Z,3.90
2019-03-13T08:25:10.346Z,3.37
2019-03-13T08:27:41.025Z,3.30
2019-03-13T08:30:12.757Z,3.97
2019-03-13T08:32:43.466Z,3.50
2019-03-13T08:35:14.218Z,3.47
2019-03-13T08:37:44.777Z,3.17
2019-03-13T08:40:15.640Z,3.60
2019-03-13T08:42:46.276Z,3.30
2019-03-13T08:45:16.894Z,3.30
2019-03-13T08:47:47.564Z,3.63
2019-03-13T08:50:18.261Z,3.97
2019-03-13T08:52:48.916Z,2.90
2019-03-13T08:55:19.778Z,4.17
2019-03-13T08:57:50.439Z,3.70
2019-03-13T09:00:21.187Z,3.67
2019-03-13T09:02:51.897Z,3.00
2019-03-13T09:05:22.565Z,3.47
2019-03-13T09:07:53.188Z,3.37
2019-03-13T09:10:23.842Z,3.50
2019-03-13T09:12:54.480Z,3.40
2019-03-13T09:15:25.173Z,3.43
2019-03-13T09:17:55.825Z,2.90
2019-03-13T09:20:24.828Z,3.80
2019-03-13T09:22:55.539Z,3.30
2019-03-13T09:25:26.246Z,3.53
2019-03-13T09:27:56.945Z,3.37
2019-03-13T09:30:27.610Z,3.20
2019-03-13T09:32:58.280Z,3.47
2019-03-13T09:35:28.928Z,3.57
2019-03-13T09:37:59.584Z,3.40
2019-03-13T09:40:28.537Z,3.43
2019-03-13T09:42:59.230Z,3.73
2019-03-13T09:45:29.849Z,3.80
2019-03-13T09:48:00.525Z,3.60
2019-03-13T09:50:31.201Z,3.47
2019-03-13T09:53:01.918Z,3.00
2019-03-13T09:55:32.642Z,3.90
2019-03-13T09:58:03.298Z,3.40
2019-03-13T10:00:34.909Z,4.00
2019-03-13T10:03:05.655Z,3.97
2019-03-13T10:05:36.319Z,3.40
2019-03-13T10:08:06.980Z,4.33
2019-03-13T10:10:37.615Z,4.27
2019-03-13T10:13:08.301Z,3.60
2019-03-13T10:15:38.946Z,3.67
2019-03-13T10:18:09.545Z,3.50
2019-03-13T10:20:40.261Z,3.60
2019-03-13T10:23:10.909Z,3.67
2019-03-13T10:25:50.318Z,3.27
2019-03-13T10:28:20.972Z,3.33
2019-03-13T10:30:51.628Z,3.87
2019-03-13T10:33:22.391Z,3.83
2019-03-13T10:35:53.042Z,2.90
2019-03-13T10:38:23.700Z,3.17
2019-03-13T10:40:54.338Z,2.83
2019-03-13T10:43:24.995Z,3.97
2019-03-13T10:45:55.641Z,3.10
2019-03-13T10:48:26.350Z,3.43
2019-03-13T10:50:57.067Z,3.50
2019-03-13T10:53:27.884Z,2.97
2019-03-13T10:55:57.779Z,2.90
2019-03-13T10:58:28.446Z,3.23
2019-03-13T11:00:59.173Z,2.60
2019-03-13T11:03:29.849Z,3.00
2019-03-13T11:06:00.489Z,3.53
2019-03-13T11:08:31.143Z,3.03
2019-03-13T11:11:01.818Z,3.27
2019-03-13T11:13:32.543Z,3.10
2019-03-13T11:16:01.526Z,2.57
2019-03-13T11:18:32.231Z,2.87
2019-03-13T11:21:02.940Z,2.93
2019-03-13T11:23:32.001Z,2.03
2019-03-13T11:26:02.730Z,2.40
2019-03-13T11:28:33.426Z,2.60
2019-03-13T11:31:05.033Z,2.47
2019-03-13T11:33:35.763Z,2.53
2019-03-13T11:36:06.485Z,2.60
2019-03-13T11:38:37.143Z,3.07
2019-03-13T11:41:07.792Z,2.73
2019-03-13T11:43:41.228Z,2.93
2019-03-13T11:46:10.869Z,2.53
2019-03-13T11:48:41.602Z,2.67
2019-03-13T11:51:12.325Z,2.60
2019-03-13T11:53:42.977Z,3.43
2019-03-13T11:56:13.638Z,2.83
2019-03-13T11:58:44.259Z,2.80
2019-03-13T12:01:17.278Z,3.00
2019-03-13T12:03:47.200Z,2.43
2019-03-13T12:06:17.874Z,2.43
2019-03-13T12:08:48.566Z,2.90
2019-03-13T12:11:19.222Z,2.50
2019-03-13T12:13:49.849Z,2.50
2019-03-13T12:16:21.501Z,2.80
2019-03-13T12:18:52.138Z,2.50
2019-03-13T12:21:22.820Z,2.90
2019-03-13T12:23:53.470Z,2.73
2019-03-13T12:26:24.135Z,2.80
2019-03-13T12:28:54.781Z,2.77
2019-03-13T12:31:25.439Z,2.63
2019-03-13T12:33:56.081Z,2.50
2019-03-13T12:36:26.669Z,2.77
2019-03-13T12:38:57.318Z,2.23
2019-03-13T12:41:27.966Z,2.73
2019-03-13T12:43:58.625Z,2.30
2019-03-13T12:46:29.298Z,2.50
2019-03-13T12:48:59.929Z,2.77
2019-03-13T12:51:30.611Z,3.17
2019-03-13T12:54:01.254Z,2.27
2019-03-13T12:56:31.951Z,3.10
2019-03-13T12:59:02.612Z,2.33
2019-03-13T13:01:33.301Z,3.10
2019-03-13T13:04:03.960Z,3.63
2019-03-13T13:06:34.733Z,2.93
2019-03-13T13:09:06.462Z,3.03
2019-03-13T13:11:38.837Z,2.57
2019-03-13T13:14:09.467Z,3.00
2019-03-13T13:16:40.123Z,3.17
2019-03-13T13:19:09.138Z,3.27
2019-03-13T13:21:38.166Z,2.90
2019-03-13T13:24:07.176Z,3.57
2019-03-13T13:26:36.184Z,3.40
2019-03-13T13:29:05.186Z,3.40
2019-03-13T13:31:34.192Z,4.73
2019-03-13T13:34:03.231Z,3.60
2019-03-13T13:36:32.214Z,3.73
2019-03-13T13:39:01.238Z,4.13
2019-03-13T13:41:31.869Z,3.67
2019-03-13T13:44:00.931Z,3.73
2019-03-13T13:46:29.972Z,3.83
2019-03-13T13:48:59.021Z,3.73
2019-03-13T13:51:28.032Z,3.57
2019-03-13T13:53:57.051Z,3.40
2019-03-13T13:56:26.116Z,3.23
2019-03-13T13:58:55.177Z,3.47
2019-03-13T14:01:24.202Z,3.00
2019-03-13T14:03:53.215Z,3.00
2019-03-13T14:06:22.231Z,2.90
2019-03-13T14:08:51.334Z,3.17
2019-03-13T14:11:20.322Z,3.47
2019-03-13T14:13:49.373Z,3.30
2019-03-13T14:16:18.374Z,3.60
2019-03-13T14:18:47.390Z,3.60
2019-03-13T14:21:16.402Z,3.90
2019-03-13T14:23:45.421Z,3.67
2019-03-13T14:26:14.429Z,3.40
2019-03-13T14:28:43.437Z,4.27
2019-03-13T14:31:12.488Z,3.57
2019-03-13T14:33:41.515Z,4.00
2019-03-13T14:36:10.521Z,4.17
2019-03-13T14:38:39.549Z,4.33
2019-03-13T14:41:08.633Z,5.17
2019-03-13T14:43:37.630Z,4.63
2019-03-13T14:46:06.642Z,4.10
2019-03-13T14:48:35.659Z,4.57
2019-03-13T14:51:04.766Z,4.20
2019-03-13T14:53:33.773Z,4.40
2019-03-13T14:56:02.787Z,4.47
2019-03-13T14:58:31.853Z,4.93
2019-03-13T15:01:00.906Z,4.13
2019-03-13T15:03:31.263Z,4.60
2019-03-13T15:06:00.390Z,3.90
2019-03-13T15:08:29.420Z,4.63
2019-03-13T15:10:58.456Z,4.17
2019-03-13T15:13:27.388Z,4.93
2019-03-13T15:15:56.426Z,3.80
2019-03-13T15:18:25.438Z,4.23
2019-03-13T15:20:54.462Z,4.60
2019-03-13T15:23:24.532Z,5.20
2019-03-13T15:25:53.548Z,3.90
2019-03-13T15:28:22.533Z,4.33
2019-03-13T15:30:51.558Z,4.17
2019-03-13T15:33:20.570Z,4.13
2019-03-13T15:35:49.611Z,4.47
2019-03-13T15:38:18.624Z,4.83
2019-03-13T15:40:47.742Z,4.07
2019-03-13T15:43:16.833Z,4.07
2019-03-13T15:45:45.876Z,3.90
2019-03-13T15:48:15.857Z,4.30
2019-03-13T15:50:44.887Z,4.70
2019-03-13T15:53:13.887Z,3.33
2019-03-13T15:55:42.926Z,3.20
2019-03-13T15:58:11.945Z,3.33
2019-03-13T16:00:40.970Z,3.43
2019-03-13T16:03:09.983Z,3.23
2019-03-13T16:05:38.993Z,3.60
2019-03-13T16:08:08.000Z,3.80
2019-03-13T16:10:37.023Z,3.30
2019-03-13T16:13:06.098Z,3.30
2019-03-13T16:15:36.780Z,3.20
2019-03-13T16:18:05.758Z,3.80
2019-03-13T16:20:34.777Z,3.53
2019-03-13T16:23:03.834Z,3.37
2019-03-13T16:25:32.931Z,3.60
2019-03-13T16:28:01.931Z,3.10
2019-03-13T16:30:32.560Z,3.50
2019-03-13T16:33:01.585Z,3.00
2019-03-13T16:35:30.645Z,3.10
2019-03-13T16:37:59.635Z,2.77
2019-03-13T16:40:31.627Z,2.43
2019-03-13T16:42:59.210Z,2.43
2019-03-13T16:45:28.236Z,2.27
2019-03-13T16:47:57.254Z,2.60
2019-03-13T16:50:26.082Z,2.90
2019-03-13T16:52:55.102Z,3.00
2019-03-13T16:55:24.096Z,2.60
2019-03-13T16:57:54.711Z,3.90
2019-03-13T17:00:24.477Z,3.37
2019-03-13T17:06:23.997Z,4.10
2019-03-13T17:08:53.015Z,4.07
2019-03-13T17:11:22.050Z,4.50
2019-03-13T17:13:51.057Z,4.07
2019-03-13T17:16:20.169Z,4.47
2019-03-13T17:18:49.245Z,4.83
2019-03-13T17:21:18.262Z,7.03
2019-03-13T17:23:47.304Z,5.40
2019-03-13T17:26:16.303Z,8.70
2019-03-13T17:28:45.309Z,11.07
2019-03-13T17:31:14.390Z,10.10
2019-03-13T17:33:43.449Z,7.50
2019-03-13T17:36:12.443Z,5.97
2019-03-13T17:38:41.514Z,5.00
2019-03-13T17:41:10.598Z,4.80
2019-03-13T17:43:39.866Z,3.43
2019-03-13T17:46:08.827Z,4.47
2019-03-13T17:48:37.846Z,4.20
2019-03-13T17:51:06.958Z,4.30
2019-03-13T17:53:36.957Z,3.77
2019-03-13T17:56:06.018Z,3.27
2019-03-13T17:58:35.062Z,3.53
2019-03-13T18:01:04.235Z,3.13
2019-03-13T18:03:33.254Z,2.67
2019-03-13T18:06:02.187Z,3.47
2019-03-13T18:08:31.220Z,3.53
2019-03-13T18:11:00.167Z,3.40
2019-03-13T18:13:29.189Z,3.10
2019-03-13T18:15:58.555Z,3.40
2019-03-13T18:18:27.566Z,3.37
2019-03-13T18:20:56.568Z,2.93
2019-03-13T18:23:25.597Z,3.60
2019-03-13T18:25:54.582Z,3.30
2019-03-13T18:28:23.615Z,3.17
2019-03-13T18:30:52.637Z,3.50
2019-03-13T18:33:21.656Z,3.60
2019-03-13T18:35:50.656Z,4.33
2019-03-13T18:38:19.612Z,4.43
2019-03-13T18:40:48.609Z,4.37
2019-03-13T18:43:18.699Z,4.10
2019-03-13T18:45:47.692Z,4.37
2019-03-13T18:48:16.722Z,3.93
2019-03-13T18:50:45.751Z,3.67
2019-03-13T18:53:14.935Z,3.37
2019-03-13T18:55:46.420Z,3.53
2019-03-13T18:58:15.558Z,3.40
2019-03-13T19:00:44.495Z,4.00
2019-03-13T19:03:13.620Z,4.03
2019-03-13T19:05:42.617Z,4.30
2019-03-13T19:08:11.647Z,4.13
2019-03-13T19:10:40.665Z,4.90
2019-03-13T19:13:09.699Z,5.07
2019-03-13T19:15:40.102Z,4.63
2019-03-13T19:18:09.434Z,4.27
2019-03-13T19:20:38.549Z,3.67
2019-03-13T19:23:07.581Z,4.97
2019-03-13T19:25:36.507Z,4.30
2019-03-13T19:28:05.464Z,3.87
2019-03-13T19:30:37.543Z,4.43
2019-03-13T19:33:05.482Z,3.87
2019-03-13T19:35:34.509Z,4.07
2019-03-13T19:38:05.721Z,4.43
2019-03-13T19:40:34.867Z,4.33
2019-03-13T19:43:04.057Z,3.70
2019-03-13T19:45:35.750Z,4.30
2019-03-13T19:48:04.860Z,3.60
2019-03-13T19:50:33.878Z,3.43
2019-03-13T19:53:02.871Z,4.20
2019-03-13T19:55:32.500Z,3.60
2019-03-13T19:58:01.886Z,3.43
2019-03-13T20:00:31.949Z,4.03
2019-03-13T20:03:02.490Z,4.13
2019-03-13T20:05:44.279Z,3.30
2019-03-13T20:08:02.538Z,4.27
2019-03-13T20:10:33.076Z,2.73
2019-03-13T20:13:02.148Z,2.87
2019-03-13T20:15:32.954Z,3.80
2019-03-13T20:18:02.049Z,4.00
2019-03-13T20:20:31.300Z,3.93
2019-03-13T20:23:01.852Z,4.17
2019-03-13T20:25:30.926Z,3.73
2019-03-13T20:28:00.287Z,4.70
2019-03-13T20:30:29.302Z,4.30
2019-03-13T20:32:58.374Z,3.67
2019-03-13T20:35:27.600Z,3.90
2019-03-13T20:37:56.754Z,3.40
2019-03-13T20:40:26.458Z,3.70
2019-03-13T20:42:55.637Z,3.70
2019-03-13T20:45:25.323Z,3.93
2019-03-13T20:47:54.346Z,3.60
2019-03-13T20:50:36.021Z,4.00
2019-03-13T20:52:55.448Z,4.83
2019-03-13T20:55:24.565Z,4.10
2019-03-13T20:57:53.716Z,4.20
2019-03-13T21:00:24.189Z,3.60
2019-03-13T21:02:53.926Z,4.63
2019-03-13T21:05:23.202Z,3.70
2019-03-13T21:07:52.469Z,3.40
2019-03-13T21:10:22.757Z,4.23
2019-03-13T21:12:53.057Z,3.97
2019-03-13T21:15:22.986Z,4.33
2019-03-13T21:17:52.148Z,2.90
2019-03-13T21:20:22.613Z,3.17
2019-03-13T21:22:51.613Z,3.50
2019-03-13T21:25:21.255Z,3.87
2019-03-13T21:27:50.370Z,3.97
2019-03-13T21:30:20.918Z,4.37
2019-03-13T21:32:51.667Z,3.73
2019-03-13T21:35:20.999Z,4.33
2019-03-13T21:37:50.131Z,4.40
2019-03-13T21:40:20.707Z,5.00
2019-03-13T21:42:49.741Z,3.87
2019-03-13T21:45:22.902Z,4.07
2019-03-13T21:47:49.549Z,3.67
2019-03-13T21:50:19.733Z,5.57
2019-03-13T21:52:48.992Z,4.60
2019-03-13T21:55:18.369Z,4.43
2019-03-13T21:57:47.465Z,4.50
2019-03-13T22:00:18.008Z,4.40
2019-03-13T22:02:47.165Z,3.77
2019-03-13T22:05:25.767Z,4.67
2019-03-13T22:07:46.823Z,3.87
2019-03-13T22:10:16.308Z,4.50
2019-03-13T22:12:45.300Z,3.60
2019-03-13T22:15:16.188Z,3.53
2019-03-13T22:17:45.198Z,4.10
2019-03-13T22:20:15.162Z,4.20
2019-03-13T22:22:44.237Z,4.53
2019-03-13T22:25:14.145Z,4.13
2019-03-13T22:27:43.245Z,3.77
2019-03-13T22:30:13.817Z,4.40
2019-03-13T22:32:42.801Z,3.83
2019-03-13T22:35:11.742Z,4.17
2019-03-13T22:37:41.821Z,4.07
2019-03-13T22:40:12.094Z,4.57
2019-03-13T22:42:41.133Z,3.50
2019-03-13T22:45:11.298Z,5.20
2019-03-13T22:47:42.860Z,4.60
2019-03-13T22:50:12.558Z,4.47
2019-03-13T22:52:41.569Z,3.47
2019-03-13T22:55:10.549Z,5.03
2019-03-13T22:57:39.582Z,4.20
2019-03-13T23:00:12.289Z,4.73
2019-03-13T23:02:42.770Z,4.03
2019-03-13T23:05:11.847Z,3.87
2019-03-13T23:07:40.869Z,3.93
2019-03-13T23:10:11.399Z,3.70
2019-03-13T23:12:40.482Z,3.87
2019-03-13T23:15:09.561Z,4.33
2019-03-13T23:17:38.946Z,4.30
2019-03-13T23:20:07.942Z,4.10
2019-03-13T23:22:36.952Z,4.23
2019-03-13T23:25:05.982Z,3.63
2019-03-13T23:27:35.084Z,4.10
2019-03-13T23:30:05.297Z,4.03
2019-03-13T23:32:34.482Z,4.43
2019-03-13T23:35:04.521Z,3.93
2019-03-13T23:37:33.653Z,4.07
2019-03-13T23:40:03.131Z,3.57
2019-03-13T23:42:32.141Z,4.30
2019-03-13T23:45:01.151Z,4.87
2019-03-13T23:47:30.242Z,4.13
2019-03-13T23:49:59.318Z,4.27
2019-03-13T23:52:28.336Z,5.03
2019-03-13T23:54:57.322Z,4.73
2019-03-13T23:57:26.330Z,5.00
2019-03-13T23:59:55.361Z,5.07
